createdAt,value
2018-02-08T00:01:47.488Z,-3.80
2018-02-08T00:04:15.759Z,-3.80
2018-02-08T00:06:44.036Z,-3.90
2018-02-08T00:09:12.349Z,-4.00
2018-02-08T00:11:40.619Z,-4.00
2018-02-08T00:14:08.946Z,-4.10
2018-02-08T00:16:37.245Z,-4.10
2018-02-08T00:19:05.557Z,-4.10
2018-02-08T00:21:33.851Z,-4.00
2018-02-08T00:24:02.157Z,-4.00
2018-02-08T00:26:30.437Z,-4.00
2018-02-08T00:28:58.695Z,-4.10
2018-02-08T00:31:26.992Z,-4.10
2018-02-08T00:33:56.035Z,-4.20
2018-02-08T00:36:24.332Z,-4.20
2018-02-08T00:38:52.593Z,-4.20
2018-02-08T00:41:20.868Z,-4.20
2018-02-08T00:43:49.187Z,-4.20
2018-02-08T00:46:17.461Z,-4.30
2018-02-08T00:48:45.727Z,-4.30
2018-02-08T00:51:14.047Z,-4.20
2018-02-08T00:53:43.082Z,-4.30
2018-02-08T00:56:11.357Z,-4.30
2018-02-08T00:58:39.606Z,-4.40
2018-02-08T01:01:07.920Z,-4.40
2018-02-08T01:03:36.223Z,-4.30
2018-02-08T01:06:04.493Z,-4.40
2018-02-08T01:08:32.833Z,-4.40
2018-02-08T01:11:01.128Z,-4.40
2018-02-08T01:13:29.377Z,-4.40
2018-02-08T01:15:57.622Z,-4.40
2018-02-08T01:18:25.925Z,-4.50
2018-02-08T01:20:54.185Z,-4.60
2018-02-08T01:23:23.201Z,-4.60
2018-02-08T01:25:51.489Z,-4.60
2018-02-08T01:28:19.746Z,-4.60
2018-02-08T01:30:48.789Z,-4.60
2018-02-08T01:33:17.045Z,-4.60
2018-02-08T01:35:45.362Z,-4.60
2018-02-08T01:38:14.023Z,-4.60
2018-02-08T01:40:42.285Z,-4.60
2018-02-08T01:43:10.549Z,-4.60
2018-02-08T01:45:38.836Z,-4.60
2018-02-08T01:48:07.093Z,-4.70
2018-02-08T01:50:35.353Z,-4.60
2018-02-08T01:53:04.396Z,-4.70
2018-02-08T01:55:32.653Z,-4.70
2018-02-08T01:58:00.927Z,-4.70
2018-02-08T02:00:29.196Z,-4.80
2018-02-08T02:02:57.523Z,-4.80
2018-02-08T02:05:25.794Z,-4.90
2018-02-08T02:07:54.086Z,-5.00
2018-02-08T02:10:22.352Z,-5.00
2018-02-08T02:12:50.659Z,-5.00
2018-02-08T02:15:18.919Z,-5.00
2018-02-08T02:17:47.237Z,-5.00
2018-02-08T02:20:15.553Z,-5.10
2018-02-08T02:22:43.808Z,-5.20
2018-02-08T02:25:12.081Z,-5.10
2018-02-08T02:27:40.869Z,-5.00
2018-02-08T02:30:09.163Z,-5.10
2018-02-08T02:32:37.429Z,-5.10
2018-02-08T02:35:05.715Z,-5.20
2018-02-08T02:37:34.205Z,-5.10
2018-02-08T02:40:02.471Z,-5.10
2018-02-08T02:42:30.742Z,-5.10
2018-02-08T02:44:59.006Z,-5.20
2018-02-08T02:47:28.021Z,-5.30
2018-02-08T02:49:56.337Z,-5.30
2018-02-08T02:52:24.616Z,-5.30
2018-02-08T02:54:52.878Z,-5.30
2018-02-08T02:57:21.470Z,-5.20
2018-02-08T02:59:50.549Z,-5.30
2018-02-08T03:02:18.834Z,-5.30
2018-02-08T03:04:47.128Z,-5.20
2018-02-08T03:07:15.409Z,-5.20
2018-02-08T03:09:43.678Z,-5.20
2018-02-08T03:12:11.953Z,-5.20
2018-02-08T03:14:40.226Z,-5.30
2018-02-08T03:17:08.523Z,-5.30
2018-02-08T03:19:36.749Z,-5.40
2018-02-08T03:22:04.995Z,-5.40
2018-02-08T03:24:34.042Z,-5.30
2018-02-08T03:27:02.314Z,-5.30
2018-02-08T03:29:30.563Z,-5.30
2018-02-08T03:31:59.590Z,-5.30
2018-02-08T03:34:28.742Z,-5.30
2018-02-08T03:36:57.774Z,-5.40
2018-02-08T03:39:26.028Z,-5.40
2018-02-08T03:41:54.353Z,-5.50
2018-02-08T03:44:22.630Z,-5.50
2018-02-08T03:46:50.884Z,-5.50
2018-02-08T03:49:19.163Z,-5.50
2018-02-08T03:51:47.414Z,-5.40
2018-02-08T03:54:16.438Z,-5.50
2018-02-08T03:56:44.730Z,-5.50
2018-02-08T03:59:12.991Z,-5.50
2018-02-08T04:01:41.294Z,-5.50
2018-02-08T04:04:09.580Z,-5.40
2018-02-08T04:06:37.855Z,-5.40
2018-02-08T04:09:06.127Z,-5.50
2018-02-08T04:11:34.401Z,-5.50
2018-02-08T04:14:02.647Z,-5.50
2018-02-08T04:16:31.850Z,-5.40
2018-02-08T04:19:00.135Z,-5.50
2018-02-08T04:21:29.153Z,-5.40
2018-02-08T04:23:57.578Z,-5.50
2018-02-08T04:26:27.313Z,-5.40
2018-02-08T04:28:55.574Z,-5.40
2018-02-08T04:31:24.608Z,-5.40
2018-02-08T04:33:52.861Z,-5.40
2018-02-08T04:36:21.123Z,-5.20
2018-02-08T04:39:01.440Z,-5.20
2018-02-08T04:41:41.588Z,-5.30
2018-02-08T04:44:24.762Z,-5.40
2018-02-08T04:47:13.758Z,-5.40
2018-02-08T04:49:42.037Z,-5.40
2018-02-08T04:52:10.288Z,-5.40
2018-02-08T04:54:38.588Z,-5.40
2018-02-08T04:57:06.884Z,-5.40
2018-02-08T04:59:35.149Z,-5.40
2018-02-08T05:02:03.434Z,-5.30
2018-02-08T05:04:31.684Z,-5.30
2018-02-08T05:06:59.947Z,-5.30
2018-02-08T05:09:29.124Z,-5.30
2018-02-08T05:11:58.208Z,-5.40
2018-02-08T05:14:27.985Z,-5.40
2018-02-08T05:16:56.278Z,-5.40
2018-02-08T05:19:24.574Z,-5.40
2018-02-08T05:21:52.878Z,-5.40
2018-02-08T05:24:21.149Z,-5.40
2018-02-08T05:26:50.182Z,-5.60
2018-02-08T05:29:18.483Z,-5.60
2018-02-08T05:31:46.799Z,-5.60
2018-02-08T05:34:17.297Z,-5.60
2018-02-08T05:36:46.511Z,-5.60
2018-02-08T05:39:14.817Z,-5.60
2018-02-08T05:41:43.867Z,-5.70
2018-02-08T05:44:12.141Z,-5.70
2018-02-08T05:46:40.407Z,-5.70
2018-02-08T05:49:08.703Z,-5.70
2018-02-08T05:51:37.017Z,-5.70
2018-02-08T05:54:05.304Z,-5.70
2018-02-08T05:56:34.361Z,-5.60
2018-02-08T05:59:02.627Z,-5.60
2018-02-08T06:01:30.968Z,-5.50
2018-02-08T06:04:00.058Z,-5.50
2018-02-08T06:06:29.829Z,-5.50
2018-02-08T06:08:58.078Z,-5.50
2018-02-08T06:11:26.342Z,-5.40
2018-02-08T06:13:54.690Z,-5.40
2018-02-08T06:16:22.943Z,-5.40
2018-02-08T06:18:51.213Z,-5.30
2018-02-08T06:21:19.517Z,-5.30
2018-02-08T06:23:47.786Z,-5.30
2018-02-08T06:26:16.040Z,-5.20
2018-02-08T06:28:44.298Z,-5.20
2018-02-08T06:31:12.629Z,-5.20
2018-02-08T06:33:40.853Z,-5.20
2018-02-08T06:36:09.133Z,-5.20
2018-02-08T06:38:37.409Z,-5.20
2018-02-08T06:41:05.692Z,-5.20
2018-02-08T06:43:33.983Z,-5.20
2018-02-08T06:46:02.244Z,-5.10
2018-02-08T06:48:30.524Z,-5.10
2018-02-08T06:50:58.810Z,-5.10
2018-02-08T06:53:27.087Z,-5.10
2018-02-08T06:55:55.464Z,-5.20
2018-02-08T06:58:23.779Z,-5.20
2018-02-08T07:00:52.054Z,-5.20
2018-02-08T07:03:21.114Z,-5.10
2018-02-08T07:05:50.315Z,-5.20
2018-02-08T07:08:18.615Z,-5.20
2018-02-08T07:10:46.924Z,-5.20
2018-02-08T07:13:15.965Z,-5.30
2018-02-08T07:15:44.238Z,-5.30
2018-02-08T07:18:12.493Z,-5.20
2018-02-08T07:20:40.786Z,-5.20
2018-02-08T07:23:09.062Z,-5.30
2018-02-08T07:25:37.311Z,-5.30
2018-02-08T07:28:06.361Z,-5.10
2018-02-08T07:30:34.625Z,-5.10
2018-02-08T07:33:02.911Z,-5.10
2018-02-08T07:35:31.156Z,-5.10
2018-02-08T07:37:59.508Z,-5.00
2018-02-08T07:40:28.535Z,-5.00
2018-02-08T07:42:56.809Z,-5.00
2018-02-08T07:45:25.074Z,-4.90
2018-02-08T07:47:53.349Z,-4.90
2018-02-08T07:50:22.481Z,-4.90
2018-02-08T07:52:50.791Z,-4.90
2018-02-08T07:55:19.091Z,-4.80
2018-02-08T07:57:48.133Z,-4.80
2018-02-08T08:00:16.422Z,-4.80
2018-02-08T08:02:44.679Z,-4.70
2018-02-08T08:05:13.004Z,-4.70
2018-02-08T08:07:41.291Z,-4.60
2018-02-08T08:10:09.547Z,-4.60
2018-02-08T08:12:37.851Z,-4.50
2018-02-08T08:15:06.866Z,-4.40
2018-02-08T08:17:35.221Z,-4.40
2018-02-08T08:20:03.508Z,-4.30
2018-02-08T08:22:31.792Z,-4.30
2018-02-08T08:25:00.835Z,-4.30
2018-02-08T08:27:29.125Z,-4.30
2018-02-08T08:29:57.378Z,-4.20
2018-02-08T08:32:25.644Z,-4.20
2018-02-08T08:34:53.928Z,-4.10
2018-02-08T08:37:22.192Z,-3.90
2018-02-08T08:39:51.009Z,-4.00
2018-02-08T08:42:19.294Z,-3.90
2018-02-08T08:44:47.579Z,-3.90
2018-02-08T08:47:15.886Z,-3.80
2018-02-08T08:49:44.172Z,-3.70
2018-02-08T08:52:12.446Z,-3.60
2018-02-08T08:54:41.493Z,-3.40
2018-02-08T08:57:09.744Z,-3.40
2018-02-08T08:59:38.047Z,-3.30
2018-02-08T09:02:06.326Z,-3.20
2018-02-08T09:04:34.699Z,-3.20
2018-02-08T09:07:02.956Z,-3.20
2018-02-08T09:09:31.223Z,-3.10
2018-02-08T09:12:00.050Z,-2.90
2018-02-08T09:14:28.319Z,-2.90
2018-02-08T09:16:56.623Z,-2.70
2018-02-08T09:19:24.924Z,-2.60
2018-02-08T09:21:53.203Z,-2.40
2018-02-08T09:24:22.238Z,-2.20
2018-02-08T09:26:50.561Z,-2.20
2018-02-08T09:29:18.823Z,-2.20
2018-02-08T09:31:47.914Z,-2.20
2018-02-08T09:34:16.162Z,-2.20
2018-02-08T09:36:44.471Z,-2.10
2018-02-08T09:39:12.744Z,-2.10
2018-02-08T09:41:41.181Z,-2.00
2018-02-08T09:44:09.436Z,-2.00
2018-02-08T09:46:38.455Z,-1.90
2018-02-08T09:49:07.517Z,-1.70
2018-02-08T09:51:35.780Z,-1.80
2018-02-08T09:54:04.055Z,-1.70
2018-02-08T09:56:32.372Z,-1.70
2018-02-08T09:59:00.614Z,-1.60
2018-02-08T10:01:28.892Z,-1.50
2018-02-08T10:03:57.158Z,-1.30
2018-02-08T10:06:25.461Z,-1.20
2018-02-08T10:08:53.721Z,-1.10
2018-02-08T10:11:22.000Z,-1.10
2018-02-08T10:13:50.299Z,-1.20
2018-02-08T10:16:18.540Z,-1.00
2018-02-08T10:18:46.827Z,-1.00
2018-02-08T10:21:15.147Z,-0.90
2018-02-08T10:23:44.922Z,-0.80
2018-02-08T10:26:13.211Z,-0.70
2018-02-08T10:28:41.549Z,-0.70
2018-02-08T10:31:09.798Z,-0.60
2018-02-08T10:33:38.724Z,-0.50
2018-02-08T10:36:06.987Z,-0.50
2018-02-08T10:38:35.313Z,-0.50
2018-02-08T10:41:04.024Z,-0.60
2018-02-08T10:43:33.495Z,-0.60
2018-02-08T10:46:01.786Z,-0.60
2018-02-08T10:48:30.041Z,-0.60
2018-02-08T10:50:58.334Z,-0.60
2018-02-08T10:53:26.601Z,-0.60
2018-02-08T10:55:54.893Z,-0.60
2018-02-08T10:58:23.193Z,-0.40
2018-02-08T11:00:51.477Z,-0.30
2018-02-08T11:03:19.753Z,-0.20
2018-02-08T11:05:48.040Z,-0.10
2018-02-08T11:08:16.304Z,0.00
2018-02-08T11:10:46.081Z,0.00
2018-02-08T11:13:15.997Z,0.00
2018-02-08T11:15:44.393Z,-0.10
2018-02-08T11:18:12.720Z,-0.10
2018-02-08T11:20:41.019Z,-0.10
2018-02-08T11:23:09.294Z,0.00
2018-02-08T11:25:37.564Z,-0.10
2018-02-08T11:28:05.932Z,-0.10
2018-02-08T11:30:34.246Z,-0.10
2018-02-08T11:33:02.528Z,0.00
2018-02-08T11:35:30.853Z,0.00
2018-02-08T11:38:00.632Z,0.20
2018-02-08T11:40:28.913Z,0.20
2018-02-08T11:42:57.354Z,0.10
2018-02-08T11:45:25.641Z,0.10
2018-02-08T11:47:53.915Z,0.10
2018-02-08T11:50:22.295Z,0.00
2018-02-08T11:52:51.474Z,0.00
2018-02-08T11:55:20.484Z,0.10
2018-02-08T11:57:49.473Z,0.10
2018-02-08T12:00:17.753Z,0.10
2018-02-08T12:02:46.036Z,0.10
2018-02-08T12:05:14.318Z,0.20
2018-02-08T12:07:42.801Z,0.30
2018-02-08T12:10:11.078Z,0.50
2018-02-08T12:12:39.390Z,0.60
2018-02-08T12:15:07.684Z,0.80
2018-02-08T12:17:35.963Z,0.80
2018-02-08T12:20:04.321Z,0.90
2018-02-08T12:22:32.813Z,1.00
2018-02-08T12:25:01.096Z,0.90
2018-02-08T12:27:29.322Z,1.00
2018-02-08T12:29:57.577Z,1.00
2018-02-08T12:32:26.633Z,1.10
2018-02-08T12:34:54.935Z,1.20
2018-02-08T12:37:23.306Z,1.20
2018-02-08T12:39:51.567Z,1.30
2018-02-08T12:42:19.857Z,1.30
2018-02-08T12:44:48.947Z,1.30
2018-02-08T12:47:17.190Z,1.30
2018-02-08T12:49:45.481Z,1.30
2018-02-08T12:52:13.737Z,1.40
2018-02-08T12:54:41.994Z,1.40
2018-02-08T12:57:11.086Z,1.50
2018-02-08T12:59:40.090Z,1.50
2018-02-08T13:02:09.150Z,1.50
2018-02-08T13:04:37.413Z,1.40
2018-02-08T13:07:05.690Z,1.60
2018-02-08T13:09:33.953Z,1.50
2018-02-08T13:12:02.274Z,1.50
2018-02-08T13:14:30.521Z,1.50
2018-02-08T13:16:58.857Z,1.60
2018-02-08T13:19:27.113Z,1.70
2018-02-08T13:21:56.147Z,1.80
2018-02-08T13:24:24.500Z,1.80
2018-02-08T13:26:52.805Z,1.90
2018-02-08T13:29:21.089Z,1.80
2018-02-08T13:31:49.349Z,1.90
2018-02-08T13:34:17.629Z,2.00
2018-02-08T13:36:46.069Z,1.90
2018-02-08T13:39:15.774Z,1.80
2018-02-08T13:41:44.054Z,1.80
2018-02-08T13:44:12.314Z,1.80
2018-02-08T13:46:40.565Z,1.90
2018-02-08T13:49:13.903Z,1.90
2018-02-08T13:51:52.843Z,2.00
2018-02-08T13:54:31.812Z,2.10
2018-02-08T14:00:14.378Z,2.10
2018-02-08T14:02:42.686Z,2.20
2018-02-08T14:05:10.965Z,2.30
2018-02-08T14:07:39.277Z,2.30
2018-02-08T14:10:07.510Z,2.40
2018-02-08T14:12:36.549Z,2.30
2018-02-08T14:15:04.824Z,2.30
2018-02-08T14:17:33.087Z,2.20
2018-02-08T14:20:01.404Z,2.10
2018-02-08T14:22:29.626Z,2.00
2018-02-08T14:24:58.676Z,2.20
2018-02-08T14:27:26.940Z,2.20
2018-02-08T14:29:55.226Z,2.30
2018-02-08T14:32:23.536Z,2.30
2018-02-08T14:34:51.814Z,2.30
2018-02-08T14:37:20.076Z,2.30
2018-02-08T14:39:48.357Z,2.20
2018-02-08T14:42:16.638Z,2.20
2018-02-08T14:44:45.036Z,2.20
2018-02-08T14:47:13.478Z,2.30
2018-02-08T14:49:41.771Z,2.30
2018-02-08T14:52:10.054Z,2.40
2018-02-08T14:54:39.838Z,2.30
2018-02-08T14:57:08.095Z,2.30
2018-02-08T14:59:36.423Z,2.30
2018-02-08T15:02:04.803Z,2.20
2018-02-08T15:04:33.073Z,2.20
2018-02-08T15:07:01.372Z,2.20
2018-02-08T15:09:29.604Z,2.20
2018-02-08T15:11:57.842Z,2.30
2018-02-08T15:14:26.875Z,2.30
2018-02-08T15:16:55.194Z,2.30
2018-02-08T15:19:23.465Z,2.10
2018-02-08T15:21:51.755Z,2.00
2018-02-08T15:24:20.026Z,1.90
2018-02-08T15:26:48.283Z,1.90
2018-02-08T15:29:16.575Z,1.90
2018-02-08T15:31:44.836Z,1.90
2018-02-08T15:34:13.138Z,1.90
2018-02-08T15:36:41.426Z,1.80
2018-02-08T15:39:10.453Z,1.80
2018-02-08T15:41:38.791Z,1.80
2018-02-08T15:44:07.007Z,1.70
2018-02-08T15:46:35.320Z,1.60
2018-02-08T15:49:03.594Z,1.50
2018-02-08T15:51:31.886Z,1.40
2018-02-08T15:54:00.963Z,1.40
2018-02-08T15:56:29.288Z,1.30
2018-02-08T15:58:57.566Z,1.30
2018-02-08T16:01:26.616Z,1.30
2018-02-08T16:03:54.926Z,1.30
2018-02-08T16:06:23.198Z,1.30
2018-02-08T16:08:52.287Z,1.40
2018-02-08T16:11:20.689Z,1.30
2018-02-08T16:13:49.809Z,1.30
2018-02-08T16:16:18.125Z,1.30
2018-02-08T16:18:46.411Z,1.30
2018-02-08T16:21:14.724Z,1.10
2018-02-08T16:23:42.965Z,0.90
2018-02-08T16:26:11.280Z,0.80
2018-02-08T16:28:39.733Z,0.80
2018-02-08T16:31:08.027Z,0.80
2018-02-08T16:33:36.306Z,0.80
2018-02-08T16:36:04.584Z,0.80
2018-02-08T16:38:32.957Z,0.80
2018-02-08T16:41:01.227Z,0.70
2018-02-08T16:43:29.508Z,0.70
2018-02-08T16:45:57.770Z,0.70
2018-02-08T16:48:26.069Z,0.60
2018-02-08T16:50:54.359Z,0.60
2018-02-08T16:53:22.647Z,0.60
2018-02-08T16:55:51.708Z,0.60
2018-02-08T16:58:19.969Z,0.60
2018-02-08T17:00:48.322Z,0.60
2018-02-08T17:03:17.401Z,0.40
2018-02-08T17:05:45.631Z,0.40
2018-02-08T17:08:13.911Z,0.40
2018-02-08T17:10:42.261Z,0.40
2018-02-08T17:13:11.278Z,0.30
2018-02-08T17:15:39.543Z,0.20
2018-02-08T17:18:07.842Z,0.20
2018-02-08T17:20:36.164Z,0.10
2018-02-08T17:23:04.425Z,0.10
2018-02-08T17:25:32.896Z,0.10
2018-02-08T17:28:01.179Z,0.00
2018-02-08T17:30:30.250Z,0.00
2018-02-08T17:32:58.526Z,0.00
2018-02-08T17:35:30.300Z,0.00
2018-02-08T17:37:59.817Z,0.00
2018-02-08T17:40:28.961Z,0.00
2018-02-08T17:42:57.252Z,-0.10
2018-02-08T17:45:26.057Z,0.00
2018-02-08T17:47:54.307Z,-0.10
2018-02-08T17:50:22.633Z,0.00
2018-02-08T17:52:50.938Z,-0.10
2018-02-08T17:55:20.026Z,-0.20
2018-02-08T17:57:49.083Z,-0.30
2018-02-08T18:00:17.657Z,-0.30
2018-02-08T18:02:45.932Z,-0.30
2018-02-08T18:05:14.203Z,-0.40
2018-02-08T18:07:42.484Z,-0.50
2018-02-08T18:10:10.799Z,-0.50
2018-02-08T18:12:39.059Z,-0.60
2018-02-08T18:15:07.314Z,-0.70
2018-02-08T18:17:35.630Z,-0.80
2018-02-08T18:20:03.893Z,-0.80
2018-02-08T18:22:32.295Z,-0.90
2018-02-08T18:25:00.560Z,-1.00
2018-02-08T18:27:28.846Z,-1.00
2018-02-08T18:29:57.929Z,-1.10
2018-02-08T18:32:26.239Z,-1.10
2018-02-08T18:34:54.520Z,-1.10
2018-02-08T18:37:23.605Z,-1.10
2018-02-08T18:39:52.671Z,-1.20
2018-02-08T18:42:21.012Z,-1.20
2018-02-08T18:44:49.297Z,-1.20
2018-02-08T18:47:17.607Z,-1.20
2018-02-08T18:49:46.860Z,-1.30
2018-02-08T18:52:15.315Z,-1.30
2018-02-08T18:54:43.600Z,-1.40
2018-02-08T18:57:12.749Z,-1.50
2018-02-08T18:59:41.077Z,-1.50
2018-02-08T19:02:09.541Z,-1.60
2018-02-08T19:04:38.628Z,-1.70
2018-02-08T19:07:07.132Z,-1.70
2018-02-08T19:09:36.215Z,-1.80
2018-02-08T19:12:04.626Z,-1.80
2018-02-08T19:14:33.705Z,-1.90
2018-02-08T19:17:02.776Z,-2.00
2018-02-08T19:19:31.093Z,-2.00
2018-02-08T19:22:00.185Z,-2.00
2018-02-08T19:24:28.477Z,-2.10
2018-02-08T19:26:56.785Z,-2.00
2018-02-08T19:29:25.202Z,-2.10
2018-02-08T19:31:53.554Z,-2.10
2018-02-08T19:34:21.901Z,-2.20
2018-02-08T19:36:50.928Z,-2.20
2018-02-08T19:39:19.269Z,-2.20
2018-02-08T19:41:47.555Z,-2.20
2018-02-08T19:44:16.003Z,-2.30
2018-02-08T19:46:44.329Z,-2.30
2018-02-08T19:49:12.624Z,-2.40
2018-02-08T19:51:40.924Z,-2.50
2018-02-08T19:54:09.269Z,-2.50
2018-02-08T19:56:37.617Z,-2.40
2018-02-08T19:59:06.824Z,-2.40
2018-02-08T20:01:35.875Z,-2.40
2018-02-08T20:04:04.150Z,-2.40
2018-02-08T20:06:32.469Z,-2.40
2018-02-08T20:09:00.817Z,-2.50
2018-02-08T20:11:29.134Z,-2.50
2018-02-08T20:13:57.445Z,-2.50
2018-02-08T20:16:25.869Z,-2.50
2018-02-08T20:18:55.115Z,-2.60
2018-02-08T20:21:23.552Z,-2.60
2018-02-08T20:23:52.125Z,-2.60
2018-02-08T20:26:20.535Z,-2.70
2018-02-08T20:28:49.613Z,-2.80
2018-02-08T20:31:18.533Z,-2.80
2018-02-08T20:33:47.895Z,-3.00
2018-02-08T20:36:16.299Z,-3.00
2018-02-08T20:38:44.584Z,-3.00
2018-02-08T20:41:12.969Z,-3.00
2018-02-08T20:43:42.317Z,-3.00
2018-02-08T20:46:11.394Z,-3.10
2018-02-08T20:48:39.799Z,-3.10
2018-02-08T20:51:08.354Z,-3.00
2018-02-08T20:53:36.841Z,-3.00
2018-02-08T20:56:05.159Z,-3.00
2018-02-08T20:58:33.507Z,-3.10
2018-02-08T21:01:02.754Z,-3.20
2018-02-08T21:03:31.805Z,-3.20
2018-02-08T21:06:00.090Z,-3.30
2018-02-08T21:08:28.418Z,-3.30
2018-02-08T21:10:57.503Z,-3.50
2018-02-08T21:13:25.981Z,-3.50
2018-02-08T21:15:55.065Z,-3.40
2018-02-08T21:18:23.372Z,-3.40
2018-02-08T21:20:51.703Z,-3.40
2018-02-08T21:23:20.018Z,-3.40
2018-02-08T21:25:48.400Z,-3.50
2018-02-08T21:28:16.771Z,-3.50
2018-02-08T21:30:45.334Z,-3.50
2018-02-08T21:33:13.652Z,-3.50
2018-02-08T21:35:42.750Z,-3.60
2018-02-08T21:38:11.810Z,-3.60
2018-02-08T21:40:40.882Z,-3.60
2018-02-08T21:43:09.180Z,-3.60
2018-02-08T21:45:37.556Z,-3.60
2018-02-08T21:48:05.856Z,-3.60
2018-02-08T21:50:34.561Z,-3.60
2018-02-08T21:53:02.842Z,-3.70
2018-02-08T21:55:31.149Z,-3.70
2018-02-08T21:58:00.348Z,-3.80
2018-02-08T22:00:28.682Z,-3.80
2018-02-08T22:02:56.981Z,-3.90
2018-02-08T22:05:26.039Z,-3.90
2018-02-08T22:07:54.340Z,-3.90
2018-02-08T22:10:22.641Z,-4.00
2018-02-08T22:12:50.996Z,-4.00
2018-02-08T22:15:19.251Z,-4.00
2018-02-08T22:17:47.539Z,-4.10
2018-02-08T22:20:15.836Z,-4.10
2018-02-08T22:22:44.152Z,-4.00
2018-02-08T22:25:12.441Z,-4.00
2018-02-08T22:27:40.764Z,-4.00
2018-02-08T22:30:09.046Z,-4.10
2018-02-08T22:32:38.134Z,-4.10
2018-02-08T22:35:06.396Z,-4.20
2018-02-08T22:37:34.673Z,-4.10
2018-02-08T22:40:03.734Z,-4.10
2018-02-08T22:42:32.043Z,-4.10
2018-02-08T22:45:00.346Z,-4.10
2018-02-08T22:47:29.386Z,-4.00
2018-02-08T22:49:57.673Z,-4.00
2018-02-08T22:52:25.953Z,-3.90
2018-02-08T22:54:54.259Z,-3.80
2018-02-08T22:57:22.519Z,-3.70
2018-02-08T22:59:50.821Z,-3.60
2018-02-08T23:02:19.898Z,-3.70
2018-02-08T23:04:48.163Z,-3.70
2018-02-08T23:07:16.470Z,-3.80
2018-02-08T23:09:44.726Z,-3.90
2018-02-08T23:12:13.031Z,-4.00
2018-02-08T23:14:41.315Z,-4.00
2018-02-08T23:17:10.339Z,-4.10
2018-02-08T23:19:38.635Z,-4.10
2018-02-08T23:22:06.922Z,-4.10
2018-02-08T23:24:35.204Z,-4.10
2018-02-08T23:27:03.475Z,-4.10
2018-02-08T23:29:31.742Z,-4.20
2018-02-08T23:32:00.090Z,-4.20
2018-02-08T23:34:29.133Z,-4.10
2018-02-08T23:36:57.386Z,-4.10
2018-02-08T23:39:25.669Z,-4.00
2018-02-08T23:41:54.051Z,-3.80
2018-02-08T23:44:22.315Z,-3.80
2018-02-08T23:46:50.586Z,-3.80
2018-02-08T23:49:18.860Z,-3.80
2018-02-08T23:51:47.141Z,-3.70
2018-02-08T23:54:15.397Z,-3.70
2018-02-08T23:56:43.738Z,-3.70
2018-02-08T23:59:12.026Z,-3.60
